sensor_id;sensor_type;location;lat;lon;timestamp;pressure;altitude;pressure_sealevel;temperature;humidity
30073;BME280;16897;52.422;13.678;2023-07-29T00:00:35;100466.03;;;22.61;55.96
30073;BME280;16897;52.422;13.678;2023-07-29T00:04:36;100489.16;;;22.68;55.64
30073;BME280;16897;52.422;13.678;2023-07-29T00:08:38;100476.81;;;22.67;56.03
30073;BME280;16897;52.422;13.678;2023-07-29T00:12:40;100470.69;;;22.59;55.91
30073;BME280;16897;52.422;13.678;2023-07-29T00:16:41;100461.38;;;22.54;56.01
30073;BME280;16897;52.422;13.678;2023-07-29T00:20:44;100479.69;;;22.58;56.08
30073;BME280;16897;52.422;13.678;2023-07-29T00:24:51;100461.91;;;22.50;56.03
30073;BME280;16897;52.422;13.678;2023-07-29T00:28:55;100460.75;;;22.44;55.81
30073;BME280;16897;52.422;13.678;2023-07-29T00:32:57;100463.72;;;22.41;55.65
30073;BME280;16897;52.422;13.678;2023-07-29T00:36:59;100458.75;;;22.30;55.63
30073;BME280;16897;52.422;13.678;2023-07-29T00:41:02;100459.41;;;22.32;55.77
30073;BME280;16897;52.422;13.678;2023-07-29T00:45:04;100428.81;;;22.12;55.81
30073;BME280;16897;52.422;13.678;2023-07-29T00:49:07;100442.16;;;22.20;55.94
30073;BME280;16897;52.422;13.678;2023-07-29T00:53:09;100454.59;;;22.19;55.80
30073;BME280;16897;52.422;13.678;2023-07-29T00:57:10;100440.63;;;22.09;55.64
30073;BME280;16897;52.422;13.678;2023-07-29T01:01:15;100440.09;;;22.05;56.07
30073;BME280;16897;52.422;13.678;2023-07-29T01:05:17;100424.34;;;21.87;55.74
30073;BME280;16897;52.422;13.678;2023-07-29T01:10:18;100443.09;;;21.94;55.83
30073;BME280;16897;52.422;13.678;2023-07-29T01:18:08;100454.06;;;21.91;55.67
30073;BME280;16897;52.422;13.678;2023-07-29T01:22:12;100436.13;;;21.77;56.02
30073;BME280;16897;52.422;13.678;2023-07-29T01:26:14;100443.41;;;21.75;56.04
30073;BME280;16897;52.422;13.678;2023-07-29T01:30:17;100433.13;;;21.72;56.04
30073;BME280;16897;52.422;13.678;2023-07-29T01:34:26;100422.97;;;21.59;55.75
30073;BME280;16897;52.422;13.678;2023-07-29T01:38:33;100392.88;;;21.42;56.07
30073;BME280;16897;52.422;13.678;2023-07-29T01:42:36;100426.09;;;21.54;56.11
30073;BME280;16897;52.422;13.678;2023-07-29T01:46:38;100397.13;;;21.27;55.92
30073;BME280;16897;52.422;13.678;2023-07-29T01:50:40;100422.59;;;21.37;55.78
30073;BME280;16897;52.422;13.678;2023-07-29T01:54:42;100392.91;;;21.08;55.95
30073;BME280;16897;52.422;13.678;2023-07-29T01:58:43;100421.00;;;21.18;55.71
30073;BME280;16897;52.422;13.678;2023-07-29T02:02:45;100434.31;;;21.27;55.96
30073;BME280;16897;52.422;13.678;2023-07-29T02:06:47;100445.41;;;21.22;56.02
30073;BME280;16897;52.422;13.678;2023-07-29T02:10:49;100442.25;;;21.18;55.89
30073;BME280;16897;52.422;13.678;2023-07-29T02:14:50;100443.41;;;21.16;55.83
30073;BME280;16897;52.422;13.678;2023-07-29T02:18:52;100430.75;;;21.02;55.90
30073;BME280;16897;52.422;13.678;2023-07-29T02:22:54;100438.03;;;20.99;56.09
30073;BME280;16897;52.422;13.678;2023-07-29T02:26:55;100440.19;;;20.96;56.13
30073;BME280;16897;52.422;13.678;2023-07-29T02:31:23;100431.50;;;20.86;55.91
30073;BME280;16897;52.422;13.678;2023-07-29T02:35:24;100450.25;;;20.92;55.78
30073;BME280;16897;52.422;13.678;2023-07-29T02:39:26;100426.84;;;20.80;55.89
30073;BME280;16897;52.422;13.678;2023-07-29T02:43:28;100430.13;;;20.82;55.97
30073;BME280;16897;52.422;13.678;2023-07-29T02:47:29;100437.09;;;20.74;56.31
30073;BME280;16897;52.422;13.678;2023-07-29T02:51:31;100418.44;;;20.58;56.13
30073;BME280;16897;52.422;13.678;2023-07-29T02:55:33;100414.25;;;20.55;56.03
30073;BME280;16897;52.422;13.678;2023-07-29T02:59:34;100453.84;;;20.75;55.94
30073;BME280;16897;52.422;13.678;2023-07-29T03:03:36;100415.91;;;20.57;55.90
30073;BME280;16897;52.422;13.678;2023-07-29T03:07:38;100434.66;;;20.55;55.98
30073;BME280;16897;52.422;13.678;2023-07-29T03:11:40;100430.94;;;20.48;56.34
30073;BME280;16897;52.422;13.678;2023-07-29T03:15:42;100402.28;;;20.25;55.87
30073;BME280;16897;52.422;13.678;2023-07-29T03:19:44;100413.59;;;20.36;55.90
30073;BME280;16897;52.422;13.678;2023-07-29T03:23:45;100435.19;;;20.41;56.20
30073;BME280;16897;52.422;13.678;2023-07-29T03:27:47;100422.88;;;20.31;56.21
30073;BME280;16897;52.422;13.678;2023-07-29T03:31:50;100424.84;;;20.29;56.26
30073;BME280;16897;52.422;13.678;2023-07-29T03:35:52;100425.47;;;20.23;56.04
30073;BME280;16897;52.422;13.678;2023-07-29T03:39:54;100434.09;;;20.25;55.94
30073;BME280;16897;52.422;13.678;2023-07-29T03:43:56;100427.44;;;20.21;56.33
30073;BME280;16897;52.422;13.678;2023-07-29T03:47:58;100395.13;;;20.00;55.96
30073;BME280;16897;52.422;13.678;2023-07-29T03:51:59;100419.22;;;20.06;56.29
30073;BME280;16897;52.422;13.678;2023-07-29T03:56:01;100427.16;;;20.06;56.45
30073;BME280;16897;52.422;13.678;2023-07-29T04:00:03;100436.97;;;20.14;56.30
30073;BME280;16897;52.422;13.678;2023-07-29T04:04:05;100439.63;;;20.14;56.21
30073;BME280;16897;52.422;13.678;2023-07-29T04:08:07;100407.84;;;19.96;56.29
30073;BME280;16897;52.422;13.678;2023-07-29T04:12:09;100432.81;;;20.11;56.30
30073;BME280;16897;52.422;13.678;2023-07-29T04:16:11;100414.75;;;20.07;56.24
30073;BME280;16897;52.422;13.678;2023-07-29T04:20:12;100406.72;;;19.99;56.41
30073;BME280;16897;52.422;13.678;2023-07-29T04:24:14;100400.28;;;20.01;56.33
30073;BME280;16897;52.422;13.678;2023-07-29T04:28:16;100392.28;;;19.93;56.27
30073;BME280;16897;52.422;13.678;2023-07-29T04:32:17;100399.34;;;19.93;56.58
30073;BME280;16897;52.422;13.678;2023-07-29T04:36:19;100402.38;;;19.98;56.65
30073;BME280;16897;52.422;13.678;2023-07-29T04:40:21;100409.88;;;20.02;56.62
30073;BME280;16897;52.422;13.678;2023-07-29T04:44:24;100374.47;;;19.85;56.79
30073;BME280;16897;52.422;13.678;2023-07-29T04:48:26;100409.88;;;20.02;56.37
30073;BME280;16897;52.422;13.678;2023-07-29T04:52:27;100416.91;;;20.11;56.48
30073;BME280;16897;52.422;13.678;2023-07-29T04:56:29;100416.63;;;20.15;56.74
30073;BME280;16897;52.422;13.678;2023-07-29T05:00:30;100423.56;;;20.16;56.88
30073;BME280;16897;52.422;13.678;2023-07-29T05:04:32;100423.63;;;20.24;56.52
30073;BME280;16897;52.422;13.678;2023-07-29T05:08:34;100395.56;;;20.13;56.75
30073;BME280;16897;52.422;13.678;2023-07-29T05:12:36;100407.28;;;20.28;57.08
30073;BME280;16897;52.422;13.678;2023-07-29T05:16:38;100417.31;;;20.43;56.67
30073;BME280;16897;52.422;13.678;2023-07-29T05:20:40;100414.00;;;20.49;57.00
30073;BME280;16897;52.422;13.678;2023-07-29T05:24:41;100382.97;;;20.41;56.72
30073;BME280;16897;52.422;13.678;2023-07-29T05:28:43;100401.50;;;20.59;56.99
30073;BME280;16897;52.422;13.678;2023-07-29T05:32:44;100406.38;;;20.72;57.04
30073;BME280;16897;52.422;13.678;2023-07-29T05:36:46;100389.47;;;20.73;56.80
30073;BME280;16897;52.422;13.678;2023-07-29T05:40:48;100390.50;;;20.80;56.83
30073;BME280;16897;52.422;13.678;2023-07-29T05:44:50;100408.97;;;20.98;56.85
30073;BME280;16897;52.422;13.678;2023-07-29T05:48:54;100402.22;;;21.04;57.06
30073;BME280;16897;52.422;13.678;2023-07-29T05:52:56;100403.41;;;21.17;57.53
30073;BME280;16897;52.422;13.678;2023-07-29T05:56:57;100393.63;;;21.18;57.49
30073;BME280;16897;52.422;13.678;2023-07-29T06:00:59;100404.66;;;21.39;57.33
30073;BME280;16897;52.422;13.678;2023-07-29T06:05:01;100408.50;;;21.53;57.21
30073;BME280;16897;52.422;13.678;2023-07-29T06:09:04;100395.22;;;21.61;57.49
30073;BME280;16897;52.422;13.678;2023-07-29T06:13:05;100333.91;;;21.47;57.49
30073;BME280;16897;52.422;13.678;2023-07-29T06:17:07;100387.09;;;21.96;57.46
30073;BME280;16897;52.422;13.678;2023-07-29T06:21:08;100383.41;;;22.13;57.45
30073;BME280;16897;52.422;13.678;2023-07-29T06:25:13;100375.28;;;22.31;57.93
30073;BME280;16897;52.422;13.678;2023-07-29T06:29:14;100371.59;;;22.40;57.41
30073;BME280;16897;52.422;13.678;2023-07-29T06:33:16;100382.03;;;22.58;57.72
30073;BME280;16897;52.422;13.678;2023-07-29T06:37:17;100366.84;;;22.67;57.56
30073;BME280;16897;52.422;13.678;2023-07-29T06:41:19;100358.53;;;22.70;57.38
30073;BME280;16897;52.422;13.678;2023-07-29T06:45:20;100374.44;;;22.86;57.51
30073;BME280;16897;52.422;13.678;2023-07-29T06:49:22;100357.63;;;22.86;57.87
30073;BME280;16897;52.422;13.678;2023-07-29T06:53:23;100381.38;;;23.04;57.58
30073;BME280;16897;52.422;13.678;2023-07-29T06:57:26;100325.06;;;22.75;57.69
30073;BME280;16897;52.422;13.678;2023-07-29T07:01:27;100371.66;;;23.11;57.77
30073;BME280;16897;52.422;13.678;2023-07-29T07:05:29;100372.28;;;23.21;57.75
30073;BME280;16897;52.422;13.678;2023-07-29T07:09:30;100366.78;;;23.23;57.57
30073;BME280;16897;52.422;13.678;2023-07-29T07:13:31;100368.91;;;23.27;57.45
30073;BME280;16897;52.422;13.678;2023-07-29T07:17:33;100387.13;;;23.47;57.75
30073;BME280;16897;52.422;13.678;2023-07-29T07:21:34;100385.59;;;23.52;57.73
30073;BME280;16897;52.422;13.678;2023-07-29T07:25:35;100366.25;;;23.50;57.72
30073;BME280;16897;52.422;13.678;2023-07-29T07:29:37;100392.78;;;23.75;57.74
30073;BME280;16897;52.422;13.678;2023-07-29T07:33:38;100389.00;;;23.84;57.79
30073;BME280;16897;52.422;13.678;2023-07-29T07:37:39;100388.31;;;23.90;57.73
30073;BME280;16897;52.422;13.678;2023-07-29T07:41:41;100373.50;;;23.88;57.69
30073;BME280;16897;52.422;13.678;2023-07-29T07:45:43;100381.16;;;24.05;57.71
30073;BME280;16897;52.422;13.678;2023-07-29T07:49:44;100370.97;;;24.09;57.92
30073;BME280;16897;52.422;13.678;2023-07-29T07:53:46;100363.88;;;24.16;57.72
30073;BME280;16897;52.422;13.678;2023-07-29T07:57:48;100380.47;;;24.26;57.89
30073;BME280;16897;52.422;13.678;2023-07-29T08:01:50;100373.75;;;24.31;57.94
30073;BME280;16897;52.422;13.678;2023-07-29T08:05:51;100364.34;;;24.35;57.71
30073;BME280;16897;52.422;13.678;2023-07-29T08:09:53;100352.66;;;24.36;57.69
30073;BME280;16897;52.422;13.678;2023-07-29T08:13:54;100370.75;;;24.48;57.66
30073;BME280;16897;52.422;13.678;2023-07-29T08:17:56;100333.72;;;24.31;57.62
30073;BME280;16897;52.422;13.678;2023-07-29T08:21:58;100360.63;;;24.59;57.45
30073;BME280;16897;52.422;13.678;2023-07-29T08:26:01;100358.66;;;24.67;57.84
30073;BME280;16897;52.422;13.678;2023-07-29T08:30:04;100352.13;;;24.70;57.63
30073;BME280;16897;52.422;13.678;2023-07-29T08:34:09;100353.69;;;24.79;57.72
30073;BME280;16897;52.422;13.678;2023-07-29T08:38:11;100354.59;;;24.86;57.89
30073;BME280;16897;52.422;13.678;2023-07-29T08:42:12;100345.00;;;24.92;57.31
30073;BME280;16897;52.422;13.678;2023-07-29T08:46:15;100343.88;;;25.01;57.94
30073;BME280;16897;52.422;13.678;2023-07-29T08:50:18;100333.81;;;25.03;57.60
30073;BME280;16897;52.422;13.678;2023-07-29T08:54:20;100332.25;;;25.09;57.32
30073;BME280;16897;52.422;13.678;2023-07-29T08:58:21;100328.72;;;25.23;57.70
30073;BME280;16897;52.422;13.678;2023-07-29T09:02:23;100342.03;;;25.38;57.48
30073;BME280;16897;52.422;13.678;2023-07-29T09:06:25;100333.44;;;25.43;57.53
30073;BME280;16897;52.422;13.678;2023-07-29T09:10:28;100310.19;;;25.43;57.91
30073;BME280;16897;52.422;13.678;2023-07-29T09:14:30;100331.56;;;25.65;57.55
30073;BME280;16897;52.422;13.678;2023-07-29T09:18:31;100324.22;;;25.73;57.81
30073;BME280;16897;52.422;13.678;2023-07-29T09:22:33;100313.78;;;25.78;57.73
30073;BME280;16897;52.422;13.678;2023-07-29T09:26:35;100329.34;;;25.90;57.63
30073;BME280;16897;52.422;13.678;2023-07-29T09:30:41;100312.50;;;25.96;57.37
30073;BME280;16897;52.422;13.678;2023-07-29T09:34:44;100291.69;;;25.91;57.48
30073;BME280;16897;52.422;13.678;2023-07-29T09:38:45;100294.25;;;26.06;57.44
30073;BME280;16897;52.422;13.678;2023-07-29T09:42:51;100302.81;;;26.30;57.57
30073;BME280;16897;52.422;13.678;2023-07-29T09:46:53;100305.53;;;26.36;57.44
30073;BME280;16897;52.422;13.678;2023-07-29T09:50:55;100311.94;;;26.42;57.39
30073;BME280;16897;52.422;13.678;2023-07-29T09:54:57;100296.28;;;26.39;57.38
30073;BME280;16897;52.422;13.678;2023-07-29T09:58:59;100259.75;;;26.24;57.41
30073;BME280;16897;52.422;13.678;2023-07-29T10:03:00;100289.53;;;26.49;57.36
30073;BME280;16897;52.422;13.678;2023-07-29T10:07:02;100273.28;;;26.51;57.37
30073;BME280;16897;52.422;13.678;2023-07-29T10:11:07;100280.53;;;26.64;57.21
30073;BME280;16897;52.422;13.678;2023-07-29T10:15:09;100268.19;;;26.63;57.41
30073;BME280;16897;52.422;13.678;2023-07-29T10:19:11;100266.97;;;26.72;56.88
30073;BME280;16897;52.422;13.678;2023-07-29T10:23:15;100254.00;;;26.76;57.19
30073;BME280;16897;52.422;13.678;2023-07-29T10:27:18;100254.25;;;26.87;56.97
30073;BME280;16897;52.422;13.678;2023-07-29T10:31:20;100236.31;;;26.88;57.02
30073;BME280;16897;52.422;13.678;2023-07-29T10:35:24;100240.22;;;26.99;57.18
30073;BME280;16897;52.422;13.678;2023-07-29T10:39:26;100239.22;;;27.13;56.91
30073;BME280;16897;52.422;13.678;2023-07-29T10:43:36;100235.72;;;27.12;57.25
30073;BME280;16897;52.422;13.678;2023-07-29T10:47:39;100245.25;;;27.28;56.68
30073;BME280;16897;52.422;13.678;2023-07-29T10:51:41;100240.72;;;27.35;57.01
30073;BME280;16897;52.422;13.678;2023-07-29T10:55:43;100217.59;;;27.34;56.78
30073;BME280;16897;52.422;13.678;2023-07-29T10:59:54;100231.81;;;27.48;56.57
30073;BME280;16897;52.422;13.678;2023-07-29T11:04:23;100229.13;;;27.55;56.92
30073;BME280;16897;52.422;13.678;2023-07-29T11:08:30;100218.59;;;27.60;56.80
30073;BME280;16897;52.422;13.678;2023-07-29T11:12:43;100197.38;;;27.52;56.24
30073;BME280;16897;52.422;13.678;2023-07-29T11:16:46;100205.59;;;27.64;56.43
30073;BME280;16897;52.422;13.678;2023-07-29T11:20:48;100189.28;;;27.65;55.98
30073;BME280;16897;52.422;13.678;2023-07-29T11:24:50;100201.25;;;27.69;56.22
30073;BME280;16897;52.422;13.678;2023-07-29T11:28:51;100217.94;;;27.78;55.99
30073;BME280;16897;52.422;13.678;2023-07-29T11:32:54;100211.34;;;27.80;55.55
30073;BME280;16897;52.422;13.678;2023-07-29T11:36:56;100183.72;;;27.67;55.91
30073;BME280;16897;52.422;13.678;2023-07-29T11:41:01;100222.28;;;27.79;55.82
30073;BME280;16897;52.422;13.678;2023-07-29T11:45:05;100247.69;;;27.76;55.54
30073;BME280;16897;52.422;13.678;2023-07-29T11:49:10;100239.44;;;27.58;55.38
30073;BME280;16897;52.422;13.678;2023-07-29T11:53:11;100267.09;;;27.45;55.48
30073;BME280;16897;52.422;13.678;2023-07-29T11:57:14;100265.22;;;27.32;55.52
30073;BME280;16897;52.422;13.678;2023-07-29T12:01:19;100234.47;;;27.15;55.52
30073;BME280;16897;52.422;13.678;2023-07-29T12:05:21;100240.66;;;27.02;55.64
30073;BME280;16897;52.422;13.678;2023-07-29T12:09:23;100224.13;;;26.85;55.89
30073;BME280;16897;52.422;13.678;2023-07-29T12:13:25;100231.75;;;26.88;55.50
30073;BME280;16897;52.422;13.678;2023-07-29T12:17:26;100219.16;;;26.76;55.23
30073;BME280;16897;52.422;13.678;2023-07-29T12:21:27;100249.28;;;26.84;55.63
30073;BME280;16897;52.422;13.678;2023-07-29T12:25:30;100239.34;;;26.72;55.37
30073;BME280;16897;52.422;13.678;2023-07-29T12:29:31;100213.13;;;26.54;55.46
30073;BME280;16897;52.422;13.678;2023-07-29T12:33:34;100219.44;;;26.39;55.50
30073;BME280;16897;52.422;13.678;2023-07-29T12:37:36;100200.44;;;26.21;55.59
30073;BME280;16897;52.422;13.678;2023-07-29T12:41:39;100185.13;;;26.08;55.72
30073;BME280;16897;52.422;13.678;2023-07-29T12:45:41;100221.44;;;26.24;55.55
30073;BME280;16897;52.422;13.678;2023-07-29T12:49:42;100201.56;;;25.98;55.54
30073;BME280;16897;52.422;13.678;2023-07-29T12:53:44;100222.19;;;26.04;55.54
30073;BME280;16897;52.422;13.678;2023-07-29T12:57:45;100211.22;;;25.93;55.73
30073;BME280;16897;52.422;13.678;2023-07-29T13:01:47;100208.88;;;25.83;55.35
30073;BME280;16897;52.422;13.678;2023-07-29T13:05:49;100225.75;;;25.83;55.52
30073;BME280;16897;52.422;13.678;2023-07-29T13:09:50;100211.69;;;25.75;55.81
30073;BME280;16897;52.422;13.678;2023-07-29T13:13:52;100221.22;;;25.84;55.46
30073;BME280;16897;52.422;13.678;2023-07-29T13:17:53;100219.13;;;25.79;55.69
30073;BME280;16897;52.422;13.678;2023-07-29T13:21:55;100219.97;;;25.80;55.66
30073;BME280;16897;52.422;13.678;2023-07-29T13:25:58;100224.50;;;25.79;55.84
30073;BME280;16897;52.422;13.678;2023-07-29T13:29:59;100243.91;;;25.88;55.80
30073;BME280;16897;52.422;13.678;2023-07-29T13:34:01;100245.94;;;25.86;56.05
30073;BME280;16897;52.422;13.678;2023-07-29T13:38:03;100210.38;;;25.57;55.60
30073;BME280;16897;52.422;13.678;2023-07-29T13:42:04;100242.00;;;25.82;56.08
30073;BME280;16897;52.422;13.678;2023-07-29T13:46:06;100209.19;;;25.67;55.62
30073;BME280;16897;52.422;13.678;2023-07-29T13:50:11;100231.75;;;25.86;55.85
30073;BME280;16897;52.422;13.678;2023-07-29T13:54:13;100198.28;;;25.68;55.94
30073;BME280;16897;52.422;13.678;2023-07-29T13:58:15;100215.88;;;25.84;55.96
30073;BME280;16897;52.422;13.678;2023-07-29T14:02:16;100210.16;;;25.87;56.02
30073;BME280;16897;52.422;13.678;2023-07-29T14:06:18;100202.75;;;25.89;56.23
30073;BME280;16897;52.422;13.678;2023-07-29T14:10:19;100197.84;;;25.93;56.35
30073;BME280;16897;52.422;13.678;2023-07-29T14:14:20;100158.19;;;25.75;56.08
30073;BME280;16897;52.422;13.678;2023-07-29T14:18:22;100199.75;;;26.05;55.95
30073;BME280;16897;52.422;13.678;2023-07-29T14:22:24;100191.28;;;26.02;56.23
30073;BME280;16897;52.422;13.678;2023-07-29T14:26:26;100186.34;;;26.05;55.87
30073;BME280;16897;52.422;13.678;2023-07-29T14:30:28;100189.91;;;26.13;56.38
30073;BME280;16897;52.422;13.678;2023-07-29T14:34:29;100185.59;;;26.12;56.36
30073;BME280;16897;52.422;13.678;2023-07-29T14:38:31;100197.75;;;26.21;56.39
30073;BME280;16897;52.422;13.678;2023-07-29T14:42:33;100198.81;;;26.26;56.24
30073;BME280;16897;52.422;13.678;2023-07-29T14:46:34;100194.66;;;26.24;56.24
30073;BME280;16897;52.422;13.678;2023-07-29T14:50:36;100149.91;;;25.98;55.97
30073;BME280;16897;52.422;13.678;2023-07-29T14:54:38;100198.75;;;26.13;56.18
30073;BME280;16897;52.422;13.678;2023-07-29T14:58:39;100220.59;;;26.17;56.12
30073;BME280;16897;52.422;13.678;2023-07-29T15:02:41;100203.63;;;25.96;56.41
30073;BME280;16897;52.422;13.678;2023-07-29T15:06:43;100228.56;;;26.03;56.06
30073;BME280;16897;52.422;13.678;2023-07-29T15:10:45;100208.78;;;25.98;56.30
30073;BME280;16897;52.422;13.678;2023-07-29T15:14:49;100207.09;;;25.90;56.19
30073;BME280;16897;52.422;13.678;2023-07-29T15:18:51;100186.22;;;25.79;56.18
30073;BME280;16897;52.422;13.678;2023-07-29T15:22:53;100188.03;;;25.72;56.24
30073;BME280;16897;52.422;13.678;2023-07-29T15:26:54;100198.44;;;25.88;56.18
30073;BME280;16897;52.422;13.678;2023-07-29T15:30:56;100188.38;;;25.90;56.08
30073;BME280;16897;52.422;13.678;2023-07-29T15:34:57;100152.78;;;25.61;56.16
30073;BME280;16897;52.422;13.678;2023-07-29T15:38:58;100194.81;;;25.74;56.25
30073;BME280;16897;52.422;13.678;2023-07-29T15:43:00;100215.31;;;25.89;56.18
30073;BME280;16897;52.422;13.678;2023-07-29T15:47:01;100207.09;;;25.90;56.23
30073;BME280;16897;52.422;13.678;2023-07-29T15:51:03;100184.31;;;25.73;56.15
30073;BME280;16897;52.422;13.678;2023-07-29T15:55:04;100201.03;;;25.81;56.23
30073;BME280;16897;52.422;13.678;2023-07-29T15:59:06;100220.59;;;25.82;56.15
30073;BME280;16897;52.422;13.678;2023-07-29T16:03:08;100283.47;;;25.93;56.27
30073;BME280;16897;52.422;13.678;2023-07-29T16:07:09;100311.38;;;25.83;55.99
30073;BME280;16897;52.422;13.678;2023-07-29T16:11:10;100307.97;;;25.68;56.12
30073;BME280;16897;52.422;13.678;2023-07-29T16:15:12;100240.31;;;25.25;56.33
30073;BME280;16897;52.422;13.678;2023-07-29T16:19:27;100269.00;;;25.37;55.93
30073;BME280;16897;52.422;13.678;2023-07-29T16:23:32;100275.31;;;25.30;56.35
30073;BME280;16897;52.422;13.678;2023-07-29T16:27:34;100292.13;;;25.24;56.40
30073;BME280;16897;52.422;13.678;2023-07-29T16:31:35;100282.75;;;25.13;56.07
30073;BME280;16897;52.422;13.678;2023-07-29T16:35:37;100259.91;;;24.89;56.13
30073;BME280;16897;52.422;13.678;2023-07-29T16:39:38;100249.06;;;24.76;56.12
30073;BME280;16897;52.422;13.678;2023-07-29T16:43:40;100257.44;;;24.87;55.90
30073;BME280;16897;52.422;13.678;2023-07-29T16:47:41;100214.69;;;24.51;55.89
30073;BME280;16897;52.422;13.678;2023-07-29T16:51:43;100257.56;;;24.64;56.04
30073;BME280;16897;52.422;13.678;2023-07-29T16:55:45;100258.34;;;24.58;56.30
30073;BME280;16897;52.422;13.678;2023-07-29T16:59:46;100277.19;;;24.71;56.35
30073;BME280;16897;52.422;13.678;2023-07-29T17:03:47;100258.13;;;24.60;56.12
30073;BME280;16897;52.422;13.678;2023-07-29T17:07:49;100245.28;;;24.48;56.39
30073;BME280;16897;52.422;13.678;2023-07-29T17:11:50;100237.53;;;24.39;56.09
30073;BME280;16897;52.422;13.678;2023-07-29T17:15:52;100265.44;;;24.51;55.91
30073;BME280;16897;52.422;13.678;2023-07-29T17:19:53;100267.28;;;24.50;56.15
30073;BME280;16897;52.422;13.678;2023-07-29T17:23:54;100212.16;;;24.13;55.82
30073;BME280;16897;52.422;13.678;2023-07-29T17:27:56;100241.25;;;24.23;55.97
30073;BME280;16897;52.422;13.678;2023-07-29T17:31:58;100281.53;;;24.43;56.44
30073;BME280;16897;52.422;13.678;2023-07-29T17:35:59;100285.69;;;24.45;55.97
30073;BME280;16897;52.422;13.678;2023-07-29T17:40:00;100212.91;;;24.07;56.37
30073;BME280;16897;52.422;13.678;2023-07-29T17:44:02;100244.63;;;24.17;55.98
30073;BME280;16897;52.422;13.678;2023-07-29T17:48:04;100287.53;;;24.45;56.26
30073;BME280;16897;52.422;13.678;2023-07-29T17:52:06;100254.09;;;24.19;56.47
30073;BME280;16897;52.422;13.678;2023-07-29T17:56:10;100270.00;;;24.27;56.06
30073;BME280;16897;52.422;13.678;2023-07-29T18:00:11;100233.44;;;24.06;55.99
30073;BME280;16897;52.422;13.678;2023-07-29T18:04:13;100237.91;;;24.06;56.39
30073;BME280;16897;52.422;13.678;2023-07-29T18:08:14;100221.19;;;23.97;56.10
30073;BME280;16897;52.422;13.678;2023-07-29T18:12:16;100238.13;;;24.04;55.98
30073;BME280;16897;52.422;13.678;2023-07-29T18:16:17;100275.94;;;24.23;56.41
30073;BME280;16897;52.422;13.678;2023-07-29T18:20:21;100247.31;;;24.02;56.16
30073;BME280;16897;52.422;13.678;2023-07-29T18:24:23;100305.66;;;24.20;56.15
30073;BME280;16897;52.422;13.678;2023-07-29T18:28:25;100274.44;;;24.05;56.17
30073;BME280;16897;52.422;13.678;2023-07-29T18:32:27;100251.09;;;23.93;56.53
30073;BME280;16897;52.422;13.678;2023-07-29T18:36:28;100268.28;;;23.90;56.59
30073;BME280;16897;52.422;13.678;2023-07-29T18:40:31;100270.84;;;23.83;56.03
30073;BME280;16897;52.422;13.678;2023-07-29T18:44:33;100292.09;;;23.92;56.71
30073;BME280;16897;52.422;13.678;2023-07-29T18:48:34;100313.06;;;23.95;56.40
30073;BME280;16897;52.422;13.678;2023-07-29T18:52:36;100341.50;;;24.02;56.60
30073;BME280;16897;52.422;13.678;2023-07-29T18:56:37;100356.16;;;24.06;56.62
30073;BME280;16897;52.422;13.678;2023-07-29T19:00:38;100326.69;;;23.85;56.51
30073;BME280;16897;52.422;13.678;2023-07-29T19:04:40;100367.06;;;23.97;56.07
30073;BME280;16897;52.422;13.678;2023-07-29T19:08:45;100323.47;;;23.67;56.30
30073;BME280;16897;52.422;13.678;2023-07-29T19:12:47;100362.91;;;23.79;56.58
30073;BME280;16897;52.422;13.678;2023-07-29T19:16:51;100374.19;;;23.81;56.67
30073;BME280;16897;52.422;13.678;2023-07-29T19:20:52;100384.25;;;23.79;56.22
30073;BME280;16897;52.422;13.678;2023-07-29T19:24:54;100326.88;;;23.37;56.48
30073;BME280;16897;52.422;13.678;2023-07-29T19:28:55;100365.47;;;23.64;56.20
30073;BME280;16897;52.422;13.678;2023-07-29T19:33:00;100356.44;;;23.51;56.63
30073;BME280;16897;52.422;13.678;2023-07-29T19:37:01;100381.00;;;23.61;56.48
30073;BME280;16897;52.422;13.678;2023-07-29T19:41:03;100376.63;;;23.45;56.68
30073;BME280;16897;52.422;13.678;2023-07-29T19:45:05;100372.19;;;23.37;56.58
30073;BME280;16897;52.422;13.678;2023-07-29T19:49:06;100370.63;;;23.20;56.50
30073;BME280;16897;52.422;13.678;2023-07-29T19:53:10;100383.28;;;23.18;56.36
30073;BME280;16897;52.422;13.678;2023-07-29T19:57:14;100389.69;;;23.09;56.30
30073;BME280;16897;52.422;13.678;2023-07-29T20:01:16;100394.03;;;22.93;56.50
30073;BME280;16897;52.422;13.678;2023-07-29T20:05:17;100397.06;;;22.90;56.30
30073;BME280;16897;52.422;13.678;2023-07-29T20:09:19;100398.69;;;22.91;56.44
30073;BME280;16897;52.422;13.678;2023-07-29T20:13:22;100397.56;;;22.86;56.37
30073;BME280;16897;52.422;13.678;2023-07-29T20:17:26;100382.66;;;22.68;56.60
30073;BME280;16897;52.422;13.678;2023-07-29T20:21:28;100414.03;;;22.81;56.68
30073;BME280;16897;52.422;13.678;2023-07-29T20:25:30;100392.66;;;22.66;56.69
30073;BME280;16897;52.422;13.678;2023-07-29T20:29:31;100398.13;;;22.65;56.46
30073;BME280;16897;52.422;13.678;2023-07-29T20:33:32;100377.56;;;22.50;56.57
30073;BME280;16897;52.422;13.678;2023-07-29T20:37:34;100403.13;;;22.60;56.39
30073;BME280;16897;52.422;13.678;2023-07-29T20:41:35;100403.81;;;22.62;56.78
30073;BME280;16897;52.422;13.678;2023-07-29T20:45:36;100395.84;;;22.53;56.75
30073;BME280;16897;52.422;13.678;2023-07-29T20:49:43;100404.31;;;22.57;56.62
30073;BME280;16897;52.422;13.678;2023-07-29T20:53:46;100400.50;;;22.51;56.50